Tiempo atmosférico en la estación meteorológica de Montalbán, Dga, Teruel (885 m.)



Fecha
DESCASC
Temp. máxima en grados centígrados (hora)
DESCASC
Temp. mínima en grados centígrados (hora)
DESCASC
Temp. media en grados centígrados
DESCASC
Racha de viento máxima en m/sg (hora)
DESCASC
Velocidad máxima media en intervalos de 10 minutos(hora)
DESCASC
Precipitaciones diarias en mm
DESCASC
Precipitaciones de 00:00 a 06:00 en mm
DESCASC
Precipitaciones de 06:00 a 12:00 en mm
DESCASC
Precipitaciones de 12:00 a 18:00 en mm
DESCASC
Precipitaciones de 18:00 a 24:00 en mm
DESCASC

Gráficas

Temp. máximas Temp. mínimas Temp. medias Precipitaciones Rachas de viento máximas Velocidades máximas media en intervalos de 10 minutos

Datos horarios

Fecha y hora oficial Temperatura (ºC) Velocidad del viento (km/h) Dirección del viento Racha (km/h) Dirección de racha Precipitación (mm) Presión (hPa) Tendencia (hPa) Humedad (%)
2019-02-17 23:00:00 6.1 4 Sur 13 Sudeste 0 -- -- 50
2019-02-17 22:00:00 8.2 0 Calma 29 Sudeste 0 -- -- 44
2019-02-17 21:00:00 10 9 Sudeste 25 Sudeste 0 -- -- 39
2019-02-17 20:00:00 11 11 Sudeste 20 Sudeste 0 -- -- 36
2019-02-17 19:00:00 12.2 9 Sur 22 Sur 0 -- -- 32
2019-02-17 18:00:00 15.3 8 Sudeste 18 Este 0 -- -- 25
2019-02-17 17:00:00 16.4 3 Nordeste 16 Este 0 -- -- 28
2019-02-17 16:00:00 17.1 6 Nordeste 16 Nordeste 0 -- -- 25
2019-02-17 15:00:00 16.1 6 Norte 16 Norte 0 -- -- 25
2019-02-17 14:00:00 15.7 6 Norte 19 Este 0 -- -- 28
2019-02-17 13:00:00 15.3 4 Norte 10 Nordeste 0 -- -- 22
2019-02-17 12:00:00 12.3 3 Noroeste 6 Noroeste 0 -- -- 27
2019-02-17 11:00:00 7.1 0 Calma 4 Noroeste 0 -- -- 38
2019-02-17 10:00:00 0 0 Calma 6 Oeste 0 -- -- 52
2019-02-17 09:00:00 -3 2 Noroeste 5 Oeste 0 -- -- 66
2019-02-17 08:00:00 -2.7 0 Calma 5 Sudeste 0 -- -- 64
2019-02-17 07:00:00 -2.7 2 Nordeste 5 Noroeste 0 -- -- 65
2019-02-17 06:00:00 -1.7 3 Sur 5 Sudeste 0 -- -- 60
2019-02-17 05:00:00 -1.2 0 Calma 5 Norte 0 -- -- 60
2019-02-17 04:00:00 -0.8 0 Calma 4 Este 0 -- -- 61
2019-02-17 03:00:00 -0.6 0 Calma 8 Sudeste 0 -- -- 62
2019-02-17 02:00:00 0.3 2 Sudeste 8 Nordeste 0 -- -- 59
2019-02-17 01:00:00 0.4 3 Nordeste 7 Noroeste 0 -- -- 59
2019-02-17 00:00:00 1.8 0 Calma 4 Sudeste 0 -- -- 53
2019-02-16 23:00:00 3.1 0 Calma 5 Sudeste 0 -- -- 51
2019-02-16 22:00:00 4.1 0 Calma 8 Este 0 -- -- 51
2019-02-16 21:00:00 5.7 2 Nordeste 4 Nordeste 0 -- -- 50
2019-02-16 20:00:00 7.2 2 Este 8 Nordeste 0 -- -- 60
2019-02-16 19:00:00 9.8 4 Norte 10 Norte 0 -- -- 54
2019-02-16 18:00:00 13.5 3 Nordeste 13 Nordeste 0 -- -- 45
2019-02-16 17:00:00 14.5 5 Nordeste 17 Norte 0 -- -- 42
2019-02-16 16:00:00 14.8 5 Norte 16 Nordeste 0 -- -- 42
2019-02-16 15:00:00 15 5 Norte 18 Noroeste 0 -- -- 40
2019-02-16 14:00:00 14 4 Nordeste 16 Nordeste 0 -- -- 40
2019-02-16 13:00:00 12.1 6 Norte 15 Nordeste 0 -- -- 48
2019-02-16 12:00:00 10.2 4 Noroeste 10 Oeste 0 -- -- 50
2019-02-16 11:00:00 5 0 Calma 5 Oeste 0 -- -- 76
2019-02-16 10:00:00 -0.2 2 Sudeste 6 Este 0 -- -- 95
2019-02-16 09:00:00 -2 0 Calma 3 Oeste 0 -- -- 94
2019-02-16 08:00:00 -2 0 Calma 3 Sudoeste 0 -- -- 94
2019-02-16 07:00:00 -1.7 0 Calma 3 Sudeste 0 -- -- 94
2019-02-16 06:00:00 -1.5 2 Sudeste 4 Sudeste 0 -- -- 93
2019-02-16 05:00:00 -1.2 0 Calma 3 Sudeste 0 -- -- 93
2019-02-16 04:00:00 -0.8 0 Calma 5 Sudeste 0 -- -- 91
2019-02-16 03:00:00 -0.1 0 Calma 4 Sudeste 0 -- -- 91
2019-02-16 02:00:00 0.2 0 Calma 4 Sudoeste 0 -- -- 90
2019-02-16 01:00:00 0.7 0 Calma 5 Este 0 -- -- 86
2019-02-16 00:00:00 1.5 0 Calma 4 Sudeste 0 -- -- 86
2019-02-15 23:00:00 2.2 0 Calma 5 Nordeste 0 -- -- 83
2019-02-15 22:00:00 3.5 0 Calma 4 Este 0 -- -- 79
2019-02-15 21:00:00 4.9 0 Calma 8 Norte 0 -- -- 74
2019-02-15 20:00:00 6.9 0 Calma 9 Sudeste 0 -- -- 68
2019-02-15 19:00:00 8.8 3 Este 8 Sudeste 0 -- -- 62
2019-02-15 18:00:00 12.2 2 Sur 15 Sur 0 -- -- 54
2019-02-15 17:00:00 13.5 5 Norte 17 Noroeste 0 -- -- 51
2019-02-15 16:00:00 14.3 5 Noroeste 20 Norte 0 -- -- 47
2019-02-15 15:00:00 14.5 6 Norte 20 Norte 0 -- -- 44
2019-02-15 14:00:00 14 6 Norte 17 Norte 0 -- -- 43
2019-02-15 13:00:00 12.9 4 Nordeste 10 Norte 0 -- -- 41
2019-02-15 12:00:00 9.1 3 Noroeste 5 Noroeste 0 -- -- 47
2019-02-15 11:00:00 4.6 0 Calma 3 Sudoeste 0 -- -- 59
2019-02-15 10:00:00 -0.6 0 Calma 5 Sudeste 0 -- -- 82
2019-02-15 09:00:00 -2.2 0 Calma 4 Este 0 -- -- 85
2019-02-15 08:00:00 -2.3 0 Calma 5 Sudeste 0 -- -- 85
2019-02-15 07:00:00 -1.7 0 Calma 4 Sudeste 0 -- -- 83
2019-02-15 06:00:00 -1.5 0 Calma 5 Oeste 0 -- -- 83
2019-02-15 05:00:00 -1 0 Calma 5 Oeste 0 -- -- 81
2019-02-15 04:00:00 -0.5 0 Calma 5 Sudeste 0 -- -- 81
2019-02-15 03:00:00 0.1 2 Sudeste 5 Sudeste 0 -- -- 80
2019-02-15 02:00:00 0.7 3 Sudeste 5 Sudeste 0 -- -- 78
2019-02-15 01:00:00 1.2 0 Calma 3 Sudeste 0 -- -- 75
2019-02-15 00:00:00 2.1 0 Calma 4 Sudeste 0 -- -- 73
2019-02-14 23:00:00 3.1 0 Calma 4 Noroeste 0 -- -- 73
2019-02-14 22:00:00 4 0 Calma 8 Sudeste 0 -- -- 74
2019-02-14 21:00:00 4.5 2 Sudeste 10 Oeste 0 -- -- 74
2019-02-14 20:00:00 6.5 0 Calma 12 Este 0 -- -- 69
2019-02-14 19:00:00 9.2 6 Este 11 Este 0 -- -- 61
2019-02-14 18:00:00 12 3 Sudoeste 15 Noroeste 0 -- -- 51
2019-02-14 17:00:00 14.1 5 Sudeste 15 Noroeste 0 -- -- 46
2019-02-14 16:00:00 14.5 6 Noroeste 20 Norte 0 -- -- 44
2019-02-14 15:00:00 14.3 5 Noroeste 19 Norte 0 -- -- 42
2019-02-14 14:00:00 13.3 5 Norte 19 Este 0 -- -- 44
2019-02-14 13:00:00 12.4 6 Nordeste 18 Sudeste 0 -- -- 42
2019-02-14 12:00:00 9.6 0 Calma 5 Noroeste 0 -- -- 37
2019-02-14 11:00:00 4.3 0 Calma 5 Noroeste 0 -- -- 61
2019-02-14 10:00:00 -0.7 3 Sudeste 6 Sur 0 -- -- 78
2019-02-14 09:00:00 -2.3 0 Calma 4 Oeste 0 -- -- 85
2019-02-14 08:00:00 -1.9 0 Calma 4 Sudeste 0 -- -- 86
2019-02-14 07:00:00 -1.3 0 Calma 4 Nordeste 0 -- -- 83
2019-02-14 06:00:00 -0.8 2 Sudeste 5 Sudeste 0 -- -- 84
2019-02-14 05:00:00 -0.2 0 Calma 5 Sudeste 0 -- -- 85
2019-02-14 04:00:00 0.3 0 Calma 4 Sudeste 0 -- -- 86
2019-02-14 03:00:00 0.8 0 Calma 5 Sudeste 0 -- -- 87
2019-02-14 02:00:00 0.9 0 Calma 5 Sudeste 0 -- -- 87
2019-02-14 01:00:00 1.6 0 Calma 4 Sudoeste 0 -- -- 86
2019-02-14 00:00:00 2.1 0 Calma 4 Noroeste 0 -- -- 85
2019-02-13 23:00:00 2.7 0 Calma 4 Sur 0 -- -- 83
2019-02-13 22:00:00 3.9 0 Calma 4 Norte 0 -- -- 79
2019-02-13 21:00:00 5.3 0 Calma 5 Norte 0 -- -- 74
2019-02-13 20:00:00 7.3 0 Calma 4 Este 0 -- -- 68
2019-02-13 19:00:00 9.3 0 Calma 13 Norte 0 -- -- 62
2019-02-13 18:00:00 12.8 3 Sur 12 Sudoeste 0 -- -- 51
2019-02-13 17:00:00 15 4 Oeste 13 Norte 0 -- -- 44
2019-02-13 16:00:00 15.8 4 Este 18 Este 0 -- -- 42
2019-02-13 15:00:00 15.2 5 Nordeste 19 Norte 0 -- -- 44
2019-02-13 14:00:00 14.2 6 Norte 17 Norte 0 -- -- 44
2019-02-13 13:00:00 13.4 5 Nordeste 14 Sudeste 0 -- -- 48
2019-02-13 12:00:00 9.9 3 Oeste 6 Noroeste 0 -- -- 56
2019-02-13 11:00:00 5.6 0 Calma 4 Noroeste 0 -- -- 68
2019-02-13 10:00:00 0.7 0 Calma 4 Este 0 -- -- 84
2019-02-13 09:00:00 -0.7 2 Sudeste 7 Sudeste 0 -- -- 86
2019-02-13 08:00:00 -0.9 0 Calma 4 Sudeste 0 -- -- 86
2019-02-13 07:00:00 -0.5 0 Calma 7 Este 0 -- -- 83
2019-02-13 06:00:00 -0.1 2 Norte 6 Noroeste 0 -- -- 82
2019-02-13 05:00:00 0.4 0 Calma 6 Sudeste 0 -- -- 81
2019-02-13 04:00:00 0.6 3 Sur 5 Sudeste 0 -- -- 79
2019-02-13 03:00:00 1 3 Sudeste 6 Sudeste 0 -- -- 78
2019-02-13 02:00:00 1.3 3 Sur 7 Sudeste 0 -- -- 78
2019-02-13 01:00:00 1.9 3 Sudeste 6 Sur 0 -- -- 76
2019-02-13 00:00:00 1.6 2 Sudeste 6 Sudeste 0 -- -- 81
2019-02-12 23:00:00 2.1 0 Calma 4 Sudeste 0 -- -- 79
2019-02-12 22:00:00 3 2 Sudeste 5 Sudeste 0 -- -- 75
2019-02-12 21:00:00 4.3 0 Calma 9 Norte 0 -- -- 71
2019-02-12 20:00:00 6.4 0 Calma 6 Este 0 -- -- 64
2019-02-12 19:00:00 8.5 0 Calma 5 Sudeste 0 -- -- 58
2019-02-12 18:00:00 11.7 2 Sur 13 Noroeste 0 -- -- 51
2019-02-12 17:00:00 13.6 4 Oeste 15 Norte 0 -- -- 44
2019-02-12 16:00:00 13.4 4 Sudoeste 11 Noroeste 0 -- -- 42
2019-02-12 15:00:00 12.1 3 Norte 12 Oeste 0 -- -- 47
2019-02-12 14:00:00 10.1 4 Norte 9 Oeste 0 -- -- 50
2019-02-12 13:00:00 7.9 4 Noroeste 8 Sudoeste 0 -- -- 57
2019-02-12 12:00:00 5.3 4 Oeste 7 Oeste 0 -- -- 66
2019-02-12 11:00:00 1.8 2 Oeste 6 Oeste 0 -- -- 82
2019-02-12 10:00:00 -2.4 0 Calma 5 Oeste 0 -- -- 94
2019-02-12 09:00:00 -3.5 0 Calma 3 Sudeste 0 -- -- 93
2019-02-12 08:00:00 -3.4 0 Calma 6 Noroeste 0 -- -- 92
2019-02-12 07:00:00 -2.9 2 Este 5 Este 0 -- -- 93
2019-02-12 06:00:00 -2.4 0 Calma 4 Oeste 0 -- -- 93
2019-02-12 05:00:00 -2.2 0 Calma 5 Sudeste 0 -- -- 92
2019-02-12 04:00:00 -1.5 2 Sudeste 5 Sudeste 0 -- -- 91
2019-02-12 03:00:00 -0.6 0 Calma 4 Noroeste 0 -- -- 91
2019-02-12 02:00:00 0.1 0 Calma 4 Sudeste 0 -- -- 87
2019-02-12 01:00:00 1.5 0 Calma 5 Sudeste 0 -- -- 83
2019-02-12 00:00:00 2.3 0 Calma 5 Sudeste 0 -- -- 82
2019-02-11 23:00:00 3 2 Nordeste 12 Noroeste 0 -- -- 79
2019-02-11 22:00:00 3.5 5 Noroeste 11 Noroeste 0 -- -- 78
2019-02-11 21:00:00 4 5 Noroeste 27 Norte 0 -- -- 76
2019-02-11 20:00:00 4.3 3 Noroeste 24 Oeste 0 -- -- 75
2019-02-11 19:00:00 5.2 10 Noroeste 24 Noroeste 0 -- -- 71
2019-02-11 18:00:00 6.6 11 Noroeste 38 Noroeste 0 -- -- 64
2019-02-11 17:00:00 7.9 19 Noroeste 41 Noroeste 0 -- -- 58
2019-02-11 16:00:00 8.1 18 Noroeste 42 Oeste 0 -- -- 56
2019-02-11 15:00:00 7.9 18 Noroeste 41 Oeste 0 -- -- 58
2019-02-11 14:00:00 7.7 24 Noroeste 51 Noroeste 0 -- -- 59
2019-02-11 13:00:00 7.4 22 Noroeste 43 Oeste 0.2 -- -- 60
2019-02-11 12:00:00 6.9 8 Oeste 20 Noroeste 0 -- -- 63
2019-02-11 11:00:00 5.6 6 Oeste 16 Oeste 0 -- -- 69
2019-02-11 10:00:00 3.1 5 Noroeste 10 Oeste 0 -- -- 76
2019-02-11 09:00:00 1.6 0 Calma 10 Sudoeste 0 -- -- 82
2019-02-11 08:00:00 1.9 2 Oeste 17 Oeste 0 -- -- 80
2019-02-11 07:00:00 2.6 9 Noroeste 21 Oeste 0 -- -- 78
2019-02-11 06:00:00 3.4 12 Noroeste 31 Oeste 0 -- -- 76
2019-02-11 05:00:00 3.5 9 Noroeste 22 Noroeste 0 -- -- 81
2019-02-11 04:00:00 3.9 5 Oeste 12 Noroeste 0 -- -- 87
2019-02-11 03:00:00 3.5 0 Calma 4 Sudeste 0 -- -- 92
2019-02-11 02:00:00 3.7 3 Sudeste 9 Noroeste 0.6 -- -- 90
2019-02-11 01:00:00 4 4 Noroeste 14 Sudoeste 0.6 -- -- 88
2019-02-11 00:00:00 4.5 4 Norte 24 Oeste 0 -- -- 89
2019-02-10 23:00:00 5 12 Noroeste 32 Oeste 0 -- -- 89
2019-02-10 22:00:00 6.7 4 Sudoeste 16 Noroeste 0 -- -- 84
2019-02-10 21:00:00 9.3 3 Noroeste 17 Noroeste 0 -- -- 75
2019-02-10 20:00:00 10.4 10 Noroeste 23 Noroeste 0 -- -- 69
2019-02-10 19:00:00 11.1 9 Oeste 29 Oeste 0 -- -- 64
2019-02-10 18:00:00 11.8 11 Noroeste 31 Sudoeste 0 -- -- 61
2019-02-10 17:00:00 13.4 13 Oeste 33 Oeste 0 -- -- 55
2019-02-10 16:00:00 13.8 14 Noroeste 44 Oeste 0 -- -- 53
2019-02-10 15:00:00 13.8 17 Oeste 38 Oeste 0 -- -- 51
2019-02-10 14:00:00 13 13 Noroeste 41 Oeste 0 -- -- 53
2019-02-10 13:00:00 11.6 21 Oeste 45 Oeste 0 -- -- 53
2019-02-10 12:00:00 10.2 19 Oeste 46 Oeste 0 -- -- 55
2019-02-10 11:00:00 8.8 15 Sudoeste 42 Oeste 0 -- -- 59
2019-02-10 10:00:00 7 8 Sudoeste 28 Sudoeste 0 -- -- 65
2019-02-10 09:00:00 6.9 13 Oeste 30 Oeste 0 -- -- 69
2019-02-10 08:00:00 6.6 8 Oeste 18 Oeste 0 -- -- 71
2019-02-10 07:00:00 7.2 8 Noroeste 16 Oeste 0 -- -- 62
2019-02-10 06:00:00 8.8 6 Oeste 21 Oeste 0 -- -- 48
2019-02-10 05:00:00 9.3 9 Sudoeste 22 Sudoeste 0 -- -- 45
2019-02-10 04:00:00 9 5 Sur 13 Noroeste 0 -- -- 46
2019-02-10 03:00:00 9.2 3 Sudoeste 18 Sudeste 0 -- -- 51
2019-02-10 02:00:00 8.7 6 Sudeste 16 Sudeste 0 -- -- 55
2019-02-10 01:00:00 8.4 0 Calma 17 Sudeste 0 -- -- 53
2019-02-10 00:00:00 9.2 3 Sur 19 Sudeste 0 -- -- 47
2019-02-09 23:00:00 8.5 5 Sur 17 Sudeste 0 -- -- 47
2019-02-09 22:00:00 6.3 2 Oeste 5 Sudeste 0 -- -- 65
2019-02-09 21:00:00 7.6 0 Calma 4 Sudeste 0 -- -- 62
2019-02-09 20:00:00 8.6 0 Calma 12 Nordeste 0 -- -- 61
2019-02-09 19:00:00 11.7 8 Este 17 Este 0 -- -- 56
2019-02-09 18:00:00 15.1 2 Sudeste 13 Sur 0 -- -- 36
2019-02-09 17:00:00 16.9 3 Sudoeste 12 Noroeste 0 -- -- 32
2019-02-09 16:00:00 16.9 5 Oeste 17 Oeste 0 -- -- 33
2019-02-09 15:00:00 15.9 5 Oeste 16 Oeste 0 -- -- 39
2019-02-09 14:00:00 13.5 5 Oeste 10 Oeste 0 -- -- 52
2019-02-09 13:00:00 10.9 5 Oeste 14 Oeste 0 -- -- 61
2019-02-09 12:00:00 9 6 Oeste 23 Sudoeste 0 -- -- 68
2019-02-09 11:00:00 7.4 9 Noroeste 22 Sudoeste 0 -- -- 73
2019-02-09 10:00:00 4.5 3 Noroeste 10 Oeste 0 -- -- 82
2019-02-09 09:00:00 4.1 0 Calma 8 Sur 0 -- -- 81
2019-02-09 08:00:00 4.1 4 Sudeste 9 Sudeste 0 -- -- 80
2019-02-09 07:00:00 4.5 0 Calma 7 Sudeste 0 -- -- 70
2019-02-09 06:00:00 5.2 0 Calma 5 Sudeste 0 -- -- 66
2019-02-09 05:00:00 4.8 3 Este 12 Este 0 -- -- 70
2019-02-09 04:00:00 6.1 0 Calma 13 Noroeste 0 -- -- 64
2019-02-09 03:00:00 4.1 7 Noroeste 18 Noroeste 0 -- -- 66
2019-02-09 02:00:00 4.7 8 Noroeste 19 Sudoeste 0 -- -- 60
2019-02-09 01:00:00 3.4 5 Noroeste 13 Noroeste 0 -- -- 65
2019-02-09 00:00:00 3.3 2 Sur 6 Sudeste 0 -- -- 66
2019-02-08 23:00:00 4.1 2 Oeste 6 Noroeste 0 -- -- 62
2019-02-08 22:00:00 4.6 2 Sudeste 8 Sudeste 0 -- -- 60
2019-02-08 21:00:00 6.4 3 Este 8 Norte 0 -- -- 55
2019-02-08 20:00:00 9.5 0 Calma 3 Noroeste 0 -- -- 45
2019-02-08 19:00:00 12.1 0 Calma 7 Sur 0 -- -- 40
2019-02-08 18:00:00 15.4 2 Sur 10 Oeste 0 -- -- 33
2019-02-08 17:00:00 17.3 4 Oeste 15 Noroeste 0 -- -- 33
2019-02-08 16:00:00 17.3 4 Sudoeste 13 Noroeste 0 -- -- 36
2019-02-08 15:00:00 16.5 6 Oeste 15 Sudoeste 0 -- -- 35
2019-02-08 14:00:00 15.2 4 Noroeste 19 Oeste 0 -- -- 36
2019-02-08 13:00:00 13.6 4 Noroeste 13 Oeste 0 -- -- 38
2019-02-08 12:00:00 11.8 3 Norte 8 Sudeste 0 -- -- 51
2019-02-08 11:00:00 8.2 2 Sur 8 Sudeste 0 -- -- 68
2019-02-08 10:00:00 2.5 2 Sudeste 4 Este 0 -- -- 92
2019-02-08 09:00:00 0.2 0 Calma 4 Oeste 0 -- -- 91
2019-02-08 08:00:00 1 0 Calma 5 Nordeste 0 -- -- 88
2019-02-08 07:00:00 1.9 2 Sudeste 6 Sur 0 -- -- 86
2019-02-08 06:00:00 1.8 0 Calma 6 Sudeste 0 -- -- 86
2019-02-08 05:00:00 2.1 0 Calma 7 Este 0 -- -- 88
2019-02-08 04:00:00 0.9 0 Calma 8 Sudeste 0 -- -- 92
2019-02-08 03:00:00 0.2 2 Sudeste 4 Sudeste 0 -- -- 94
2019-02-08 02:00:00 0.6 3 Sudeste 5 Este 0 -- -- 93
2019-02-08 01:00:00 1 0 Calma 4 Norte 0 -- -- 91
2019-02-08 00:00:00 1.7 2 Sudeste 4 Sudeste 0 -- -- 91
2019-02-07 23:00:00 2.8 0 Calma 5 Sudeste 0 -- -- 88
2019-02-07 22:00:00 3.7 0 Calma 10 Norte 0 -- -- 85
2019-02-07 21:00:00 5.6 0 Calma 5 Este 0 -- -- 81
2019-02-07 20:00:00 7.2 0 Calma 6 Sudeste 0 -- -- 75
2019-02-07 19:00:00 9.1 2 Sudoeste 21 Oeste 0 -- -- 66
2019-02-07 18:00:00 11.7 5 Noroeste 21 Oeste 0 -- -- 52
2019-02-07 17:00:00 13.6 6 Oeste 18 Sudoeste 0 -- -- 47
2019-02-07 16:00:00 13.6 8 Oeste 21 Noroeste 0 -- -- 44
2019-02-07 15:00:00 13.2 8 Noroeste 26 Noroeste 0 -- -- 38
2019-02-07 14:00:00 12.3 10 Noroeste 24 Sudoeste 0 -- -- 38
2019-02-07 13:00:00 11.8 11 Oeste 25 Noroeste 0 -- -- 40
2019-02-07 12:00:00 10.3 9 Oeste 21 Oeste 0 -- -- 46
2019-02-07 11:00:00 8.9 10 Noroeste 28 Noroeste 0 -- -- 50
2019-02-07 10:00:00 5.1 3 Noroeste 11 Norte 0 -- -- 78
2019-02-07 09:00:00 4.3 2 Norte 8 Norte 0 -- -- 82
2019-02-07 08:00:00 4 2 Nordeste 9 Norte 0 -- -- 84
2019-02-07 07:00:00 2.8 0 Calma 6 Oeste 0 -- -- 89
2019-02-07 06:00:00 3.1 0 Calma 4 Oeste 0 -- -- 90
2019-02-07 05:00:00 2.3 0 Calma 4 Sudeste 0 -- -- 89
2019-02-07 04:00:00 3.4 0 Calma 8 Sudeste 0 -- -- 84
2019-02-07 03:00:00 4.3 0 Calma 9 Este 0 -- -- 81
2019-02-07 02:00:00 4.8 2 Oeste 8 Noroeste 0 -- -- 80
2019-02-07 01:00:00 5.4 4 Norte 8 Noroeste 0 -- -- 79
2019-02-07 00:00:00 4.6 0 Calma 5 Este 0 -- -- 83
2019-02-06 23:00:00 4.4 0 Calma 4 Sudeste 0 -- -- 81
2019-02-06 22:00:00 5.7 0 Calma 6 Sudeste 0 -- -- 78
2019-02-06 21:00:00 6.6 2 Sudeste 5 Nordeste 0 -- -- 75
2019-02-06 20:00:00 8.1 0 Calma 9 Norte 0 -- -- 64
2019-02-06 19:00:00 10.8 2 Nordeste 6 Norte 0 -- -- 58
2019-02-06 18:00:00 14.2 0 Calma 7 Sudoeste 0 -- -- 46
2019-02-06 17:00:00 16.1 3 Sudoeste 13 Oeste 0 -- -- 43
2019-02-06 16:00:00 16.3 6 Oeste 15 Noroeste 0 -- -- 40
2019-02-06 15:00:00 15.6 8 Oeste 17 Noroeste 0 -- -- 41
2019-02-06 14:00:00 14.1 7 Oeste 15 Oeste 0 -- -- 52
2019-02-06 13:00:00 12.1 7 Noroeste 15 Noroeste 0 -- -- 61
2019-02-06 12:00:00 10.2 7 Oeste 14 Sudoeste 0 -- -- 69
2019-02-06 11:00:00 7.2 3 Sudoeste 9 Oeste 0 -- -- 80
2019-02-06 10:00:00 2.4 0 Calma 7 Sudeste 0 -- -- 95
2019-02-06 09:00:00 0.6 3 Sudeste 7 Sudeste 0 -- -- 95
2019-02-06 08:00:00 0.9 0 Calma 6 Sudeste 0 -- -- 94
2019-02-06 07:00:00 1.4 4 Sudeste 7 Sudeste 0 -- -- 95
2019-02-06 06:00:00 1.6 0 Calma 7 Sudeste 0 -- -- 94
2019-02-06 05:00:00 1.9 0 Calma 5 Sudeste 0 -- -- 93
2019-02-06 04:00:00 2.1 2 Sudeste 6 Noroeste 0 -- -- 93
2019-02-06 03:00:00 2.6 0 Calma 5 Sudeste 0 -- -- 92
2019-02-06 02:00:00 3 2 Sur 6 Sudeste 0 -- -- 91
2019-02-06 01:00:00 3.6 0 Calma 3 Sudeste 0 -- -- 88
2019-02-06 00:00:00 4 0 Calma 6 Sudeste 0 -- -- 87
2019-02-05 23:00:00 4.9 3 Sudeste 6 Sudeste 0 -- -- 85
2019-02-05 22:00:00 5.7 0 Calma 7 Este 0 -- -- 83
2019-02-05 21:00:00 6.8 0 Calma 12 Sudeste 0 -- -- 77
2019-02-05 20:00:00 9 0 Calma 10 Noroeste 0 -- -- 71
2019-02-05 19:00:00 10.9 4 Noroeste 14 Noroeste 0 -- -- 64
2019-02-05 18:00:00 12.4 7 Noroeste 23 Norte 0 -- -- 58
2019-02-05 17:00:00 13.6 10 Noroeste 25 Norte 0 -- -- 55
2019-02-05 16:00:00 13.8 9 Noroeste 27 Noroeste 0 -- -- 53
2019-02-05 15:00:00 13 11 Noroeste 27 Oeste 0 -- -- 53
2019-02-05 14:00:00 12.5 11 Oeste 22 Oeste 0 -- -- 55
2019-02-05 13:00:00 11.8 7 Oeste 14 Oeste 0 -- -- 59
2019-02-05 12:00:00 10.1 6 Oeste 12 Sudoeste 0 -- -- 62
2019-02-05 11:00:00 6.7 3 Noroeste 12 Oeste 0 -- -- 69
2019-02-05 10:00:00 3.2 0 Calma 6 Sudeste 0 -- -- 75
2019-02-05 09:00:00 1.8 3 Sudeste 8 Sudeste 0 -- -- 75
2019-02-05 08:00:00 1.7 2 Sudeste 7 Norte 0 -- -- 73
2019-02-05 07:00:00 2.2 0 Calma 6 Oeste 0 -- -- 70
2019-02-05 06:00:00 2.6 0 Calma 8 Noroeste 0 -- -- 68
2019-02-05 05:00:00 3.4 2 Sudoeste 9 Oeste 0 -- -- 66
2019-02-05 04:00:00 4 3 Oeste 10 Oeste 0 -- -- 64
2019-02-05 03:00:00 4.9 4 Oeste 14 Oeste 0 -- -- 61
2019-02-05 02:00:00 5 3 Norte 12 Oeste 0 -- -- 63
2019-02-05 01:00:00 5.1 2 Sudeste 7 Oeste 0 -- -- 65
2019-02-05 00:00:00 4.2 3 Noroeste 8 Oeste 0 -- -- 70
2019-02-04 23:00:00 3.9 0 Calma 3 Noroeste 0 -- -- 69
2019-02-04 22:00:00 4.2 0 Calma 5 Oeste 0 -- -- 66
2019-02-04 21:00:00 4.9 0 Calma 4 Este 0 -- -- 63
2019-02-04 20:00:00 6.2 0 Calma 3 Nordeste 0 -- -- 57
2019-02-04 19:00:00 7.4 2 Norte 13 Noroeste 0 -- -- 52
2019-02-04 18:00:00 9.4 5 Noroeste 13 Oeste 0 -- -- 47
2019-02-04 17:00:00 11.1 7 Oeste 16 Oeste 0 -- -- 41
2019-02-04 16:00:00 10.2 5 Oeste 19 Oeste 0 -- -- 44
2019-02-04 15:00:00 9.9 8 Noroeste 19 Oeste 0 -- -- 42
2019-02-04 14:00:00 8.7 8 Noroeste 19 Noroeste 0 -- -- 43
2019-02-04 13:00:00 6.3 8 Oeste 23 Sudoeste 0 -- -- 47
2019-02-04 12:00:00 4.7 7 Noroeste 28 Oeste 0 -- -- 51
2019-02-04 11:00:00 2.7 11 Noroeste 23 Sudoeste 0 -- -- 56
2019-02-04 10:00:00 -0.7 4 Noroeste 8 Oeste 0 -- -- 71
2019-02-04 09:00:00 -1.4 0 Calma 8 Noroeste 0 -- -- 73
2019-02-04 08:00:00 -1.5 4 Sudeste 9 Oeste 0 -- -- 75
2019-02-04 07:00:00 -1.9 3 Norte 14 Noroeste 0 -- -- 80
2019-02-04 06:00:00 -2.3 2 Norte 8 Oeste 0 -- -- 82
2019-02-04 05:00:00 -1.8 3 Noroeste 11 Norte 0 -- -- 81
2019-02-04 04:00:00 -1.4 3 Noroeste 15 Noroeste 0 -- -- 81
2019-02-04 03:00:00 -1.1 6 Noroeste 16 Noroeste 0 -- -- 77
2019-02-04 02:00:00 -0.5 9 Noroeste 18 Noroeste 0 -- -- 71
2019-02-04 01:00:00 -0.5 8 Noroeste 20 Oeste 0 -- -- 72
2019-02-04 00:00:00 -0.4 6 Oeste 24 Sudoeste 0 -- -- 72
2019-02-03 23:00:00 0.1 5 Oeste 17 Oeste 0 -- -- 69
2019-02-03 22:00:00 -0.4 4 Sudeste 23 Noroeste 0 -- -- 67
2019-02-03 21:00:00 0.2 12 Noroeste 37 Noroeste 0 -- -- 70
2019-02-03 20:00:00 0.5 21 Noroeste 41 Norte 0 -- -- 71
2019-02-03 19:00:00 0.7 13 Noroeste 41 Noroeste 0 -- -- 68
2019-02-03 18:00:00 1.3 20 Noroeste 49 Noroeste 0 -- -- 62
2019-02-03 17:00:00 2.3 25 Noroeste 59 Noroeste 0 -- -- 57
2019-02-03 16:00:00 2.4 23 Noroeste 75 Noroeste 0 -- -- 58
2019-02-03 15:00:00 2.2 34 Noroeste 66 Noroeste 0 -- -- 60
2019-02-03 14:00:00 1.4 35 Noroeste 64 Oeste 0 -- -- 61
2019-02-03 13:00:00 -- 24 Noroeste 66 Noroeste 0 -- -- --
2019-02-03 12:00:00 0.4 28 Noroeste 55 Noroeste 0 -- -- 69
2019-02-03 11:00:00 -0.3 21 Noroeste 43 Noroeste 0 -- -- 75
2019-02-03 10:00:00 -0.7 12 Noroeste 36 Noroeste 0 -- -- 79
2019-02-03 09:00:00 -1 12 Noroeste 42 Oeste 0 -- -- 80
2019-02-03 08:00:00 -1.2 16 Noroeste 47 Noroeste 0 -- -- 76
2019-02-03 07:00:00 -1.3 15 Noroeste 47 Noroeste 0 -- -- 75
2019-02-03 06:00:00 -1.1 21 Noroeste 53 Noroeste 0 -- -- 74
2019-02-03 05:00:00 -1.2 17 Noroeste 44 Noroeste 0 -- -- 71
2019-02-03 04:00:00 -0.9 21 Noroeste 55 Noroeste 0 -- -- 73
2019-02-03 03:00:00 -0.5 22 Noroeste 44 Noroeste 0 -- -- 70
2019-02-03 02:00:00 -0.1 16 Noroeste 40 Noroeste 0 -- -- 77
2019-02-03 01:00:00 0.3 20 Noroeste 49 Norte 0 -- -- 70
2019-02-03 00:00:00 0.4 19 Noroeste 45 Noroeste 0 -- -- 69
2019-02-02 23:00:00 0.1 9 Noroeste 37 Noroeste 0 -- -- 75
2019-02-02 22:00:00 -0.3 7 Noroeste 27 Noroeste 0 -- -- 79
2019-02-02 21:00:00 0.4 11 Noroeste 31 Noroeste 0 -- -- 71
2019-02-02 20:00:00 0.5 14 Noroeste 35 Noroeste 0 -- -- 65
2019-02-02 19:00:00 0.9 18 Noroeste 35 Noroeste 0 -- -- 57
2019-02-02 18:00:00 1.8 23 Noroeste 43 Norte 0 -- -- 57
2019-02-02 17:00:00 2.2 19 Noroeste 46 Noroeste 0 -- -- 60
2019-02-02 16:00:00 2.5 15 Noroeste 43 Oeste 0 -- -- 66
2019-02-02 15:00:00 2.3 11 Noroeste 40 Noroeste 0 -- -- 66
2019-02-02 14:00:00 2.5 15 Noroeste 32 Noroeste 0 -- -- 71
2019-02-02 13:00:00 2.3 11 Noroeste 34 Noroeste 0 -- -- 78
2019-02-02 12:00:00 1.7 12 Noroeste 28 Noroeste 0 -- -- 84
2019-02-02 11:00:00 1.1 5 Noroeste 18 Sudoeste 0.2 -- -- 87
2019-02-02 10:00:00 0.3 10 Noroeste 21 Noroeste 1 -- -- 96
2019-02-02 09:00:00 0.3 9 Oeste 30 Noroeste 0.4 -- -- 94
2019-02-02 08:00:00 0.8 10 Oeste 26 Sudoeste 0 -- -- 89
2019-02-02 07:00:00 0.4 11 Oeste 28 Oeste 0.4 -- -- 94
2019-02-02 06:00:00 0.8 10 Oeste 32 Oeste 0 -- -- 92
2019-02-02 05:00:00 1.9 14 Noroeste 32 Noroeste 0.2 -- -- 84
2019-02-02 04:00:00 1.2 8 Noroeste 27 Noroeste 0.6 -- -- 93
2019-02-02 03:00:00 1.8 11 Noroeste 44 Oeste 0.4 -- -- 88
2019-02-02 02:00:00 2.3 15 Oeste 35 Oeste 0 -- -- 83
2019-02-02 01:00:00 2.8 18 Oeste 47 Sudoeste 0.2 -- -- 78
2019-02-02 00:00:00 2.8 10 Oeste 23 Oeste 0 -- -- 76
2019-02-01 23:00:00 2.8 6 Noroeste 29 Sudoeste 0 -- -- 74
2019-02-01 22:00:00 3.1 13 Oeste 34 Sudoeste 0 -- -- 76
2019-02-01 21:00:00 1 0 Calma 40 Noroeste 1.4 -- -- 92
2019-02-01 20:00:00 4.2 7 Sudoeste 24 Sudoeste 0.6 -- -- 81
2019-02-01 19:00:00 4.3 12 Oeste 37 Sudoeste 1.2 -- -- 81
2019-02-01 18:00:00 7 11 Oeste 35 Oeste 0 -- -- 58
2019-02-01 17:00:00 8.2 16 Oeste 42 Oeste 0 -- -- 52
2019-02-01 16:00:00 9 22 Oeste 57 Oeste 0 -- -- 49
2019-02-01 15:00:00 9.5 23 Oeste 48 Oeste 0 -- -- 45
2019-02-01 14:00:00 9.3 17 Oeste 40 Noroeste 0 -- -- 49
2019-02-01 13:00:00 8.5 13 Oeste 39 Oeste 0 -- -- 58
2019-02-01 12:00:00 6.7 9 Oeste 26 Sudoeste 0.2 -- -- 75
2019-02-01 11:00:00 9 12 Oeste 35 Oeste 0 -- -- 59
2019-02-01 10:00:00 8.4 15 Oeste 44 Sudoeste 0 -- -- 63
2019-02-01 09:00:00 7 12 Oeste 29 Sudoeste 0 -- -- 75
2019-02-01 08:00:00 6.9 12 Oeste 26 Sudoeste 0.2 -- -- 83
2019-02-01 07:00:00 6.9 12 Oeste 30 Oeste 2.4 -- -- 86
2019-02-01 06:00:00 9.8 8 Sudoeste 33 Oeste 0 -- -- 75
2019-02-01 05:00:00 10.9 11 Oeste 40 Oeste 0 -- -- 66
2019-02-01 04:00:00 10.7 12 Oeste 33 Oeste 0 -- -- 67
2019-02-01 03:00:00 10.4 11 Sudoeste 41 Noroeste 0 -- -- 69
2019-02-01 02:00:00 10.4 10 Oeste 39 Noroeste 0 -- -- 72
2019-02-01 01:00:00 11 8 Sur 44 Oeste 0 -- -- 68
2019-02-01 00:00:00 11 10 Oeste 24 Sudoeste 0 -- -- 66
2019-01-31 23:00:00 11.5 11 Oeste 29 Noroeste 0 -- -- 66
2019-01-31 22:00:00 11.3 8 Oeste 27 Oeste 0 -- -- 67
2019-01-31 21:00:00 11.1 7 Sudoeste 23 Oeste 0 -- -- 68
2019-01-31 20:00:00 11.1 6 Oeste 28 Oeste 0 -- -- 68
2019-01-31 19:00:00 11.5 12 Oeste 35 Oeste 0 -- -- 66
2019-01-31 18:00:00 11.9 16 Oeste 45 Sudoeste 0 -- -- 64
2019-01-31 17:00:00 12.7 13 Oeste 33 Oeste 0 -- -- 62
2019-01-31 16:00:00 13.5 15 Oeste 42 Noroeste 0 -- -- 59
2019-01-31 15:00:00 13.4 18 Oeste 51 Sudoeste 0 -- -- 58
2019-01-31 14:00:00 13.1 19 Oeste 47 Sudoeste 0 -- -- 58
2019-01-31 13:00:00 12.7 18 Oeste 44 Oeste 0 -- -- 58
2019-01-31 12:00:00 12.2 19 Oeste 51 Noroeste 0 -- -- 60
2019-01-31 11:00:00 12 16 Oeste 48 Oeste 0 -- -- 65
2019-01-31 10:00:00 10.7 21 Oeste 45 Oeste 0 -- -- 67
2019-01-31 09:00:00 10.2 21 Oeste 48 Oeste 0 -- -- 69
2019-01-31 08:00:00 9.6 18 Oeste 48 Sudoeste 0 -- -- 70
2019-01-31 07:00:00 9.5 20 Oeste 51 Sudoeste 0 -- -- 72
2019-01-31 06:00:00 9.2 23 Oeste 65 Oeste 0 -- -- 71
2019-01-31 05:00:00 7.5 14 Oeste 34 Sudoeste 0.4 -- -- 78
2019-01-31 04:00:00 7.1 12 Oeste 38 Oeste 0.2 -- -- 78
2019-01-31 03:00:00 6.8 14 Oeste 41 Oeste 0 -- -- 77
2019-01-31 02:00:00 6.4 12 Sur 40 Sudoeste 0 -- -- 70
2019-01-31 01:00:00 5.7 12 Sudoeste 34 Sudoeste 0 -- -- 72
2019-01-31 00:00:00 4.9 6 Sudoeste 34 Oeste 0 -- -- 73
2019-01-30 23:00:00 4.8 9 Sudoeste 27 Oeste 0 -- -- 71
2019-01-30 22:00:00 5.6 6 Sur 31 Sudoeste 0 -- -- 55
2019-01-30 21:00:00 5.8 12 Oeste 32 Noroeste 0 -- -- 51
2019-01-30 20:00:00 6 13 Oeste 35 Noroeste 0 -- -- 50
2019-01-30 19:00:00 6.5 8 Oeste 20 Oeste 0 -- -- 48
2019-01-30 18:00:00 7.1 10 Oeste 30 Oeste 0 -- -- 42
2019-01-30 17:00:00 8.1 8 Oeste 27 Noroeste 0 -- -- 43
2019-01-30 16:00:00 8 9 Oeste 27 Noroeste 0 -- -- 43
2019-01-30 15:00:00 7.8 13 Noroeste 27 Noroeste 0 -- -- 44
2019-01-30 14:00:00 6.8 13 Noroeste 29 Noroeste 0 -- -- 52
2019-01-30 13:00:00 5.9 10 Oeste 30 Noroeste 0 -- -- 58
2019-01-30 12:00:00 4.6 13 Oeste 33 Oeste 0 -- -- 62
2019-01-30 11:00:00 3.8 14 Oeste 33 Oeste 0 -- -- 66
2019-01-30 10:00:00 2.4 9 Oeste 20 Noroeste 0 -- -- 77
2019-01-30 09:00:00 1.8 8 Noroeste 19 Noroeste 0 -- -- 77
2019-01-30 08:00:00 2 8 Oeste 18 Oeste 0 -- -- 76
2019-01-30 07:00:00 2.2 8 Noroeste 19 Noroeste 0 -- -- 76
2019-01-30 06:00:00 2.5 8 Oeste 28 Noroeste 0 -- -- 75
2019-01-30 05:00:00 2.7 9 Oeste 23 Noroeste 0 -- -- 76
2019-01-30 04:00:00 2.7 7 Noroeste 19 Noroeste 0 -- -- 77
2019-01-30 03:00:00 2.9 7 Noroeste 16 Oeste 0 -- -- 77
2019-01-30 02:00:00 3.5 4 Noroeste 30 Noroeste 0 -- -- 76
2019-01-30 01:00:00 4 11 Noroeste 26 Oeste 0 -- -- 78
2019-01-30 00:00:00 4.4 11 Noroeste 29 Noroeste 0 -- -- 77
2019-01-29 23:00:00 5.3 10 Noroeste 21 Noroeste 0 -- -- 80
2019-01-29 22:00:00 4.7 5 Noroeste 20 Noroeste 0 -- -- 85
2019-01-29 21:00:00 4.5 10 Noroeste 38 Noroeste 0.8 -- -- 84
2019-01-29 20:00:00 6.9 14 Noroeste 42 Oeste 0 -- -- 77
2019-01-29 19:00:00 6.5 10 Noroeste 36 Oeste 0 -- -- 80
2019-01-29 18:00:00 7.9 19 Oeste 56 Oeste 0 -- -- 69
2019-01-29 17:00:00 9 16 Oeste 43 Noroeste 0 -- -- 64
2019-01-29 16:00:00 8.9 15 Oeste 44 Oeste 0 -- -- 61
2019-01-29 15:00:00 8.1 16 Oeste 37 Noroeste 0 -- -- 62
2019-01-29 14:00:00 8.3 14 Oeste 39 Oeste 0 -- -- 60
2019-01-29 13:00:00 6.7 15 Oeste 41 Sudoeste 0 -- -- 63
2019-01-29 12:00:00 5.3 12 Noroeste 28 Oeste 0 -- -- 64
2019-01-29 11:00:00 3.6 4 Norte 12 Noroeste 0 -- -- 70
2019-01-29 10:00:00 1.9 2 Noroeste 11 Noroeste 0 -- -- 77
2019-01-29 09:00:00 0.8 3 Norte 7 Norte 0 -- -- 81
2019-01-29 08:00:00 0.5 0 Calma 13 Oeste 0 -- -- 81
2019-01-29 07:00:00 0.8 3 Noroeste 9 Oeste 0 -- -- 80
2019-01-29 06:00:00 0.3 3 Noroeste 10 Noroeste 0 -- -- 81
2019-01-29 05:00:00 1.5 6 Noroeste 14 Norte 0 -- -- 75
2019-01-29 04:00:00 1.8 4 Noroeste 13 Noroeste 0 -- -- 74
2019-01-29 03:00:00 2.3 6 Noroeste 12 Noroeste 0 -- -- 74
2019-01-29 02:00:00 2.3 5 Norte 11 Norte 0 -- -- 76
2019-01-29 01:00:00 2.6 3 Noroeste 6 Noroeste 0 -- -- 76
2019-01-29 00:00:00 2.7 0 Calma 4 Sur 0 -- -- 80
2019-01-28 23:00:00 4 5 Oeste 20 Noroeste 0 -- -- 75
2019-01-28 22:00:00 3.7 7 Oeste 18 Noroeste 0 -- -- 78
2019-01-28 21:00:00 4.9 5 Oeste 16 Noroeste 0 -- -- 73
2019-01-28 20:00:00 5.2 4 Noroeste 12 Noroeste 0 -- -- 71
2019-01-28 19:00:00 5.1 6 Este 28 Noroeste 0 -- -- 77
2019-01-28 18:00:00 6.6 12 Noroeste 23 Noroeste 0 -- -- 71
2019-01-28 17:00:00 6.2 10 Noroeste 51 Noroeste 0 -- -- 74
2019-01-28 16:00:00 6.2 23 Noroeste 54 Noroeste 0 -- -- 76
2019-01-28 15:00:00 7.4 21 Noroeste 55 Noroeste 0 -- -- 65
2019-01-28 14:00:00 7.1 20 Noroeste 60 Noroeste 0 -- -- 66
2019-01-28 13:00:00 6.5 20 Noroeste 49 Oeste 0 -- -- 66
2019-01-28 12:00:00 6.5 21 Noroeste 48 Noroeste 0 -- -- 67
2019-01-28 11:00:00 5.3 17 Noroeste 42 Sudoeste 0 -- -- 67
2019-01-28 10:00:00 3.6 13 Noroeste 45 Norte 0 -- -- 71
2019-01-28 09:00:00 2.5 11 Noroeste 28 Noroeste 0 -- -- 75
2019-01-28 08:00:00 1.7 10 Noroeste 24 Noroeste 0 -- -- 72
2019-01-28 07:00:00 1.6 12 Noroeste 28 Oeste 0 -- -- 72
2019-01-28 06:00:00 1.6 9 Noroeste 32 Oeste 0 -- -- 73
2019-01-28 05:00:00 2.3 13 Oeste 30 Noroeste 0 -- -- 68
2019-01-28 04:00:00 2.5 14 Noroeste 30 Noroeste 0 -- -- 68
2019-01-28 03:00:00 2.5 8 Noroeste 23 Oeste 0 -- -- 66
2019-01-28 02:00:00 2.4 2 Norte 12 Oeste 0 -- -- 65
2019-01-28 01:00:00 2.9 4 Sudoeste 17 Oeste 0 -- -- 63
2019-01-28 00:00:00 3.4 8 Noroeste 21 Oeste 0 -- -- 62
2019-01-27 23:00:00 3 8 Noroeste 16 Norte 0 -- -- 63
2019-01-27 22:00:00 1.7 3 Este 6 Oeste 0 -- -- 72
2019-01-27 21:00:00 2.6 2 Sur 27 Noroeste 0 -- -- 73
2019-01-27 20:00:00 3.1 14 Noroeste 31 Oeste 0 -- -- 74
2019-01-27 19:00:00 4.7 8 Noroeste 28 Sudoeste 0 -- -- 65
2019-01-27 18:00:00 5 14 Noroeste 35 Oeste 0 -- -- 65
2019-01-27 17:00:00 7.2 19 Noroeste 48 Noroeste 0 -- -- 43
2019-01-27 16:00:00 8 14 Noroeste 42 Noroeste 0 -- -- 54
2019-01-27 15:00:00 7.6 21 Noroeste 47 Noroeste 0 -- -- 55
2019-01-27 14:00:00 8.4 23 Noroeste 46 Noroeste 0 -- -- 57
2019-01-27 13:00:00 7.2 13 Noroeste 33 Noroeste 0 -- -- 68
2019-01-27 12:00:00 5.2 9 Noroeste 39 Noroeste 0 -- -- 75
2019-01-27 11:00:00 5.3 11 Noroeste 36 Noroeste 0 -- -- 75
2019-01-27 10:00:00 4.2 5 Noroeste 14 Noroeste 0 -- -- 75
2019-01-27 09:00:00 3.9 2 Sudeste 10 Norte 0 -- -- 75
2019-01-27 08:00:00 3.1 3 Nordeste 10 Norte 0 -- -- 75
2019-01-27 07:00:00 2.8 0 Calma 10 Oeste 0 -- -- 75
2019-01-27 06:00:00 3.4 3 Oeste 22 Oeste 0 -- -- 71
2019-01-27 05:00:00 4.1 5 Noroeste 17 Sudoeste 0 -- -- 68
2019-01-27 04:00:00 4.7 7 Oeste 15 Sudoeste 0 -- -- 66
2019-01-27 03:00:00 4.7 5 Noroeste 14 Oeste 0 -- -- 68
2019-01-27 02:00:00 5 2 Noroeste 11 Noroeste 0 -- -- 69
2019-01-27 01:00:00 5.5 5 Noroeste 18 Oeste 0 -- -- 69
2019-01-27 00:00:00 5.8 6 Noroeste 14 Oeste 0 -- -- 69
2019-01-26 23:00:00 6.1 4 Nordeste 12 Norte 0 -- -- 68
2019-01-26 22:00:00 5.6 4 Norte 12 Norte 0 -- -- 71
2019-01-26 21:00:00 5.5 4 Norte 10 Noroeste 0 -- -- 72
2019-01-26 20:00:00 6.7 4 Norte 10 Noroeste 0 -- -- 66
2019-01-26 19:00:00 9 2 Noroeste 7 Oeste 0 -- -- 57
2019-01-26 18:00:00 11.3 0 Calma 13 Oeste 0 -- -- 48
2019-01-26 17:00:00 13.9 6 Noroeste 20 Noroeste 0 -- -- 44
2019-01-26 16:00:00 14.2 11 Noroeste 25 Oeste 0 -- -- 41
2019-01-26 15:00:00 13.8 11 Noroeste 22 Noroeste 0 -- -- 42
2019-01-26 14:00:00 12.4 8 Oeste 21 Oeste 0 -- -- 52
2019-01-26 13:00:00 10.1 6 Oeste 17 Noroeste 0 -- -- 60
2019-01-26 12:00:00 7.8 8 Noroeste 16 Sudoeste 0 -- -- 70
2019-01-26 11:00:00 5.5 6 Oeste 14 Noroeste 0 -- -- 79
2019-01-26 10:00:00 2.2 4 Sudeste 8 Sudeste 0 -- -- 91
2019-01-26 09:00:00 1.4 0 Calma 6 Oeste 0 -- -- 91
2019-01-26 08:00:00 1.3 3 Oeste 8 Norte 0 -- -- 91
2019-01-26 07:00:00 1.6 4 Sudeste 8 Sudeste 0 -- -- 91
2019-01-26 06:00:00 3.1 0 Calma 5 Este 0 -- -- 88
2019-01-26 05:00:00 3.8 0 Calma 8 Este 0 -- -- 85
2019-01-26 04:00:00 4.9 3 Sudeste 9 Nordeste 0 -- -- 82
2019-01-26 03:00:00 5.9 3 Norte 7 Oeste 0 -- -- 78
2019-01-26 02:00:00 6.2 2 Norte 10 Norte 0 -- -- 78
2019-01-26 01:00:00 6.2 2 Sudeste 9 Nordeste 0 -- -- 78
2019-01-26 00:00:00 5.9 2 Sudeste 13 Norte 0 -- -- 78
2019-01-25 23:00:00 6.3 6 Noroeste 18 Noroeste 0 -- -- 76
2019-01-25 22:00:00 6.4 5 Oeste 27 Noroeste 0 -- -- 75
2019-01-25 21:00:00 6.4 7 Noroeste 32 Oeste 0 -- -- 75
2019-01-25 20:00:00 7 8 Noroeste 24 Sudoeste 0 -- -- 73
2019-01-25 19:00:00 7.7 9 Oeste 31 Oeste 0 -- -- 70
2019-01-25 18:00:00 8 8 Oeste 34 Noroeste 0 -- -- 71
2019-01-25 17:00:00 8.7 14 Noroeste 44 Noroeste 0 -- -- 69
2019-01-25 16:00:00 8.6 19 Noroeste 41 Norte 0 -- -- 70
2019-01-25 15:00:00 8.5 12 Noroeste 39 Noroeste 0 -- -- 72
2019-01-25 14:00:00 8.1 9 Noroeste 36 Noroeste 0 -- -- 75
2019-01-25 13:00:00 7.9 14 Noroeste 38 Oeste 0 -- -- 75
2019-01-25 12:00:00 7.7 13 Noroeste 44 Noroeste 0 -- -- 77
2019-01-25 11:00:00 7.6 16 Noroeste 39 Noroeste 0 -- -- 77
2019-01-25 10:00:00 7.2 13 Noroeste 29 Noroeste 0 -- -- 78
2019-01-25 09:00:00 6.8 11 Noroeste 22 Noroeste 0 -- -- 79
2019-01-25 08:00:00 6.7 8 Noroeste 32 Noroeste 0 -- -- 79
2019-01-25 07:00:00 6.6 10 Noroeste 31 Noroeste 0 -- -- 81
2019-01-25 06:00:00 6.2 18 Noroeste 40 Noroeste 0 -- -- 85
2019-01-25 05:00:00 6 17 Noroeste 42 Noroeste 0 -- -- 83
2019-01-25 04:00:00 5.1 14 Noroeste 29 Noroeste 0 -- -- 86
2019-01-25 03:00:00 4.6 13 Noroeste 32 Noroeste 0 -- -- 88
2019-01-25 02:00:00 4.8 14 Noroeste 39 Noroeste 0 -- -- 83
2019-01-25 01:00:00 4.5 15 Noroeste 38 Noroeste 0 -- -- 84
2019-01-25 00:00:00 4 12 Noroeste 36 Noroeste 0 -- -- 85
2019-01-24 23:00:00 3.5 12 Noroeste 28 Noroeste 0 -- -- 87
2019-01-24 22:00:00 3.1 11 Noroeste 28 Noroeste 0 -- -- 84
2019-01-24 21:00:00 2.6 12 Noroeste 32 Noroeste 0 -- -- 85
2019-01-24 20:00:00 2.3 14 Noroeste 43 Noroeste 0 -- -- 83
2019-01-24 19:00:00 2.5 18 Noroeste 37 Norte 0 -- -- 81
2019-01-24 18:00:00 2.4 16 Noroeste 33 Oeste 0 -- -- 86
2019-01-24 17:00:00 2.1 13 Noroeste 35 Noroeste 0 -- -- 90
2019-01-24 16:00:00 2.1 12 Noroeste 41 Noroeste 0 -- -- 88
2019-01-24 15:00:00 1.8 15 Noroeste 43 Noroeste 0 -- -- 86
2019-01-24 14:00:00 1.8 14 Noroeste 42 Oeste 0 -- -- 83
2019-01-24 13:00:00 1.1 15 Noroeste 58 Oeste 0 -- -- 84
2019-01-24 12:00:00 0.8 17 Noroeste 44 Noroeste 0 -- -- 86
2019-01-24 11:00:00 0.8 17 Noroeste 39 Noroeste 0 -- -- 86
2019-01-24 10:00:00 0.6 15 Noroeste 40 Noroeste 0 -- -- 90
2019-01-24 09:00:00 0.8 22 Noroeste 47 Noroeste 0.2 -- -- 91
2019-01-24 08:00:00 0.9 19 Noroeste 51 Noroeste 0.4 -- -- 92
2019-01-24 07:00:00 1.6 26 Noroeste 53 Noroeste 0.4 -- -- 91
2019-01-24 06:00:00 1.9 28 Noroeste 48 Noroeste 0.6 -- -- 90
2019-01-24 05:00:00 2.4 27 Noroeste 50 Noroeste 0.2 -- -- 89
2019-01-24 04:00:00 2.3 27 Noroeste 59 Oeste 0.4 -- -- 89
2019-01-24 03:00:00 2.9 25 Noroeste 55 Noroeste 0.4 -- -- 89
2019-01-24 02:00:00 2.9 13 Noroeste 33 Noroeste 1.2 -- -- 92
2019-01-24 01:00:00 3.3 16 Noroeste 30 Noroeste 1.4 -- -- 92
2019-01-24 00:00:00 3.5 15 Noroeste 40 Noroeste 1.2 -- -- 92
2019-01-23 23:00:00 3.4 22 Noroeste 44 Noroeste 1.8 -- -- 90
2019-01-23 22:00:00 5.2 16 Noroeste 42 Noroeste 0 -- -- 86
2019-01-23 21:00:00 6.3 19 Noroeste 40 Noroeste 0 -- -- 77
2019-01-23 20:00:00 7 28 Noroeste 48 Noroeste 0 -- -- 73
2019-01-23 19:00:00 7.4 23 Noroeste 50 Noroeste 0.2 -- -- 69
2019-01-23 18:00:00 7.6 23 Noroeste 44 Noroeste 0 -- -- 70
2019-01-23 17:00:00 6.7 14 Noroeste 41 Noroeste 0.2 -- -- 84
2019-01-23 16:00:00 6.3 14 Noroeste 46 Noroeste 0.2 -- -- 83
2019-01-23 15:00:00 7.4 16 Noroeste 38 Noroeste 0 -- -- 79
2019-01-23 14:00:00 6.5 12 Noroeste 32 Oeste 0 -- -- 84
2019-01-23 13:00:00 6.3 14 Noroeste 37 Norte 0 -- -- 85
2019-01-23 12:00:00 6 14 Noroeste 39 Noroeste 0 -- -- 84
2019-01-23 11:00:00 5.5 16 Noroeste 37 Noroeste 0 -- -- 83
2019-01-23 10:00:00 4.7 16 Noroeste 43 Noroeste 0 -- -- 83
2019-01-23 09:00:00 4.5 17 Oeste 44 Oeste 0 -- -- 80
2019-01-23 08:00:00 4.1 18 Oeste 40 Sudoeste 0 -- -- 80
2019-01-23 07:00:00 4 15 Oeste 32 Oeste 0 -- -- 80
2019-01-23 06:00:00 3.4 9 Oeste 28 Oeste 0 -- -- 84
2019-01-23 05:00:00 3 10 Oeste 27 Noroeste 0 -- -- 86
2019-01-23 04:00:00 2.8 7 Oeste 20 Noroeste 0 -- -- 87
2019-01-23 03:00:00 2.9 9 Oeste 22 Oeste 0 -- -- 86
2019-01-23 02:00:00 2.6 7 Oeste 22 Sudoeste 0 -- -- 87
2019-01-23 01:00:00 2.3 10 Oeste 21 Oeste 0 -- -- 89
2019-01-23 00:00:00 1.9 6 Noroeste 13 Noroeste 0 -- -- 90
2019-01-22 23:00:00 1.8 2 Sudoeste 10 Sur 0 -- -- 88
2019-01-22 22:00:00 1.2 5 Noroeste 15 Oeste 0 -- -- 90
2019-01-22 21:00:00 1.7 7 Noroeste 19 Oeste 0 -- -- 87
2019-01-22 20:00:00 1.8 9 Oeste 21 Oeste 0 -- -- 86
2019-01-22 19:00:00 1.5 8 Oeste 24 Oeste 0 -- -- 89
2019-01-22 18:00:00 2 9 Oeste 22 Sudoeste 0 -- -- 87
2019-01-22 17:00:00 2.1 10 Oeste 23 Oeste 0 -- -- 87
2019-01-22 16:00:00 3.1 11 Noroeste 28 Oeste 0 -- -- 82
2019-01-22 15:00:00 3.6 15 Oeste 33 Oeste 0 -- -- 75
2019-01-22 14:00:00 3.6 11 Oeste 28 Oeste 0 -- -- 72
2019-01-22 13:00:00 3.2 11 Oeste 27 Noroeste 0 -- -- 69
2019-01-22 12:00:00 2.6 10 Oeste 28 Oeste 0 -- -- 70
2019-01-22 11:00:00 1.8 8 Oeste 19 Noroeste 0 -- -- 72
2019-01-22 10:00:00 -0.4 7 Noroeste 13 Sudoeste 0 -- -- 80
2019-01-22 09:00:00 -2.1 3 Norte 9 Noroeste 0 -- -- 83
2019-01-22 08:00:00 -3.2 0 Calma 8 Norte 0 -- -- 86
2019-01-22 07:00:00 -2.4 2 Norte 6 Noroeste 0 -- -- 83
2019-01-22 06:00:00 -2.3 0 Calma 5 Oeste 0 -- -- 83
2019-01-22 05:00:00 -1.9 3 Norte 7 Noroeste 0 -- -- 82
2019-01-22 04:00:00 -0.9 4 Noroeste 9 Oeste 0 -- -- 77
2019-01-22 03:00:00 -0.6 0 Calma 17 Noroeste 0 -- -- 75
2019-01-22 02:00:00 -0.3 0 Calma 9 Sudeste 0 -- -- 75
2019-01-22 01:00:00 0.1 2 Noroeste 11 Oeste 0 -- -- 74
2019-01-22 00:00:00 0.5 7 Noroeste 20 Noroeste 0 -- -- 72
2019-01-21 23:00:00 0 2 Sudeste 9 Noroeste 0 -- -- 73
2019-01-21 22:00:00 0.8 3 Noroeste 19 Noroeste 0 -- -- 69
2019-01-21 21:00:00 1.8 3 Noroeste 12 Noroeste 0 -- -- 68
2019-01-21 20:00:00 2.2 8 Noroeste 18 Noroeste 0 -- -- 69
2019-01-21 19:00:00 2.4 10 Noroeste 23 Noroeste 0 -- -- 70
2019-01-21 18:00:00 2.8 9 Noroeste 23 Oeste 0 -- -- 70
2019-01-21 17:00:00 3.1 11 Noroeste 26 Noroeste 0 -- -- 70
2019-01-21 16:00:00 3.3 12 Noroeste 35 Noroeste 0 -- -- 69
2019-01-21 15:00:00 3.4 15 Noroeste 37 Sudoeste 0 -- -- 71
2019-01-21 14:00:00 3.6 12 Noroeste 35 Noroeste 0 -- -- 69
2019-01-21 13:00:00 3.6 16 Noroeste 37 Noroeste 0 -- -- 70
2019-01-21 12:00:00 3.6 21 Noroeste 42 Noroeste 0 -- -- 72
2019-01-21 11:00:00 3.1 14 Noroeste 37 Noroeste 0 -- -- 70
2019-01-21 10:00:00 2.6 8 Noroeste 21 Noroeste 0 -- -- 73
2019-01-21 09:00:00 2.3 3 Noroeste 14 Sudoeste 0 -- -- 75
2019-01-21 08:00:00 2.4 5 Noroeste 13 Sudoeste 0 -- -- 77
2019-01-21 07:00:00 2.6 2 Oeste 12 Nordeste 0 -- -- 77
2019-01-21 06:00:00 2.6 3 Sudoeste 14 Noroeste 0 -- -- 78
2019-01-21 05:00:00 2.8 3 Sur 14 Noroeste 0 -- -- 78
2019-01-21 04:00:00 2.3 0 Calma 12 Sudeste 0 -- -- 81
2019-01-21 03:00:00 1.7 5 Sudeste 22 Noroeste 0 -- -- 83
2019-01-21 02:00:00 2.4 11 Noroeste 21 Noroeste 0 -- -- 79
2019-01-21 01:00:00 2.6 5 Noroeste 15 Sudoeste 0 -- -- 78
2019-01-21 00:00:00 3 5 Oeste 28 Noroeste 0 -- -- 77
2019-01-20 23:00:00 3.1 3 Noroeste 15 Oeste 0 -- -- 77
2019-01-20 22:00:00 3.1 6 Noroeste 22 Norte 0 -- -- 78
2019-01-20 21:00:00 3.2 2 Noroeste 18 Noroeste 0 -- -- 77
2019-01-20 20:00:00 3.4 9 Noroeste 23 Noroeste 0 -- -- 76
2019-01-20 19:00:00 4.2 9 Noroeste 28 Noroeste 0 -- -- 76
2019-01-20 18:00:00 4.7 8 Noroeste 27 Noroeste 0 -- -- 74
2019-01-20 17:00:00 5.5 12 Noroeste 44 Noroeste 0 -- -- 71
2019-01-20 16:00:00 5.5 20 Noroeste 38 Noroeste 0 -- -- 69
2019-01-20 15:00:00 5.6 21 Noroeste 45 Oeste 0 -- -- 70
2019-01-20 14:00:00 5.3 15 Noroeste 42 Oeste 0 -- -- 75
2019-01-20 13:00:00 4.5 15 Noroeste 37 Noroeste 0 -- -- 83
2019-01-20 12:00:00 3.2 8 Noroeste 26 Noroeste 0.2 -- -- 90
2019-01-20 11:00:00 2.4 11 Noroeste 26 Noroeste 0 -- -- 92
2019-01-20 10:00:00 1.9 10 Noroeste 18 Noroeste 0 -- -- 94
2019-01-20 09:00:00 1.9 3 Noroeste 12 Noroeste 0.4 -- -- 93
2019-01-20 08:00:00 2 2 Norte 17 Noroeste 0.8 -- -- 92
2019-01-20 07:00:00 3.1 5 Noroeste 14 Noroeste 0.8 -- -- 94
2019-01-20 06:00:00 3.3 2 Noroeste 5 Noroeste 0.6 -- -- 94
2019-01-20 05:00:00 3.5 0 Calma 3 Sudeste 0.2 -- -- 93
2019-01-20 04:00:00 3.8 0 Calma 9 Oeste 0 -- -- 91
2019-01-20 03:00:00 4.3 3 Noroeste 11 Oeste 0 -- -- 84
2019-01-20 02:00:00 4.2 6 Oeste 17 Sudoeste 0.2 -- -- 85
2019-01-20 01:00:00 4.1 5 Sur 21 Oeste 0 -- -- 87
2019-01-20 00:00:00 3.9 4 Sudoeste 19 Oeste 0.6 -- -- 87
2019-01-19 23:00:00 3.9 6 Sudoeste 22 Sur 1 -- -- 87
2019-01-19 22:00:00 3.9 9 Sur 25 Sur 0.8 -- -- 85
2019-01-19 21:00:00 3.8 0 Calma 15 Oeste 1 -- -- 89
2019-01-19 20:00:00 5.1 6 Sudoeste 26 Oeste 0.2 -- -- 79
2019-01-19 19:00:00 7.5 5 Sudoeste 22 Sudeste 0 -- -- 57
2019-01-19 18:00:00 7.8 0 Calma 15 Sudeste 0 -- -- 56
2019-01-19 17:00:00 8.4 4 Sur 22 Oeste 0 -- -- 55
2019-01-19 16:00:00 9.1 4 Sudoeste 12 Sudoeste 0 -- -- 54
2019-01-19 15:00:00 8 3 Sudeste 14 Sudeste 0 -- -- 58
2019-01-19 14:00:00 6.7 3 Sudoeste 15 Noroeste 0 -- -- 65
2019-01-19 13:00:00 6.4 7 Noroeste 14 Noroeste 0 -- -- 67
2019-01-19 12:00:00 4.8 6 Oeste 13 Noroeste 0 -- -- 71
2019-01-19 11:00:00 3.6 5 Oeste 17 Oeste 0 -- -- 76
2019-01-19 10:00:00 1.7 5 Noroeste 12 Noroeste 0 -- -- 83
2019-01-19 09:00:00 1.6 5 Noroeste 15 Sudoeste 0 -- -- 82
2019-01-19 08:00:00 1.8 8 Oeste 21 Sudoeste 0 -- -- 81
2019-01-19 07:00:00 1.8 6 Oeste 19 Oeste 0 -- -- 80
2019-01-19 06:00:00 1.5 8 Oeste 18 Oeste 0 -- -- 80
2019-01-19 05:00:00 1.5 6 Oeste 20 Oeste 0 -- -- 80
2019-01-19 04:00:00 1.8 8 Oeste 23 Noroeste 0 -- -- 78
2019-01-19 03:00:00 2 10 Noroeste 22 Oeste 0 -- -- 78
2019-01-19 02:00:00 1.8 4 Noroeste 13 Oeste 0 -- -- 80
2019-01-19 01:00:00 1.1 3 Noroeste 9 Noroeste 0 -- -- 83
2019-01-19 00:00:00 1.7 2 Norte 8 Noroeste 0 -- -- 79